Terminal Aerodrome Forecast
Issued by NWS Denver/Boulder, CO

Home | Current Version | Previous Version | Text Only | Print | Product List | Glossary On
Versions: 1 2 3 4 5 6 7 8 9 10 11 12 13 14 15 16 17 18 19 20 21 22 23 24 25 26 27 28 29 30 31 32 33 34 35 36 37 38 39 40 41 42 43 44 45 46 47 48 49 50
000
FTUS45 KBOU 261258 AAB
TAFDEN
TAF AMD
KDEN 261258Z 2613/2718 01006KT 4SM -SN BR SCT025 OVC060
      TEMPO 2613/2616 2SM -SN BR OVC025
     FM261600 01007KT P6SM SCT015 OVC025
      TEMPO 2616/2620 5SM -SN OVC015
     FM262000 02007KT 5SM -SN BR SCT015 OVC025
      TEMPO 2620/2623 3SM -SN BR OVC015
     FM270100 02006KT P6SM VCSH SCT015 BKN030 OVC060
     FM270700 24006KT P6SM SCT025 BKN040 BKN080
     FM271200 21007KT P6SM SCT040 SCT080=

USA.gov is the U.S. government's official web portal to all federal, state and local government web resources and services.